sensor_id;sensor_type;location;lat;lon;timestamp;pressure;altitude;pressure_sealevel;temperature;humidity
44079;BME280;29744;49.078;12.878;2022-12-10T00:03:14;95057.16;;;15.36;36.45
44079;BME280;29744;49.078;12.878;2022-12-10T00:08:14;95061.38;;;15.33;36.40
44079;BME280;29744;49.078;12.878;2022-12-10T00:13:15;95053.63;;;15.32;36.25
44079;BME280;29744;49.078;12.878;2022-12-10T00:18:15;95057.81;;;15.29;36.31
44079;BME280;29744;49.078;12.878;2022-12-10T00:23:15;95053.94;;;15.27;36.43
44079;BME280;29744;49.078;12.878;2022-12-10T00:28:16;95052.72;;;15.24;36.89
44079;BME280;29744;49.078;12.878;2022-12-10T00:33:16;95060.00;;;15.20;36.55
44079;BME280;29744;49.078;12.878;2022-12-10T00:38:16;95056.88;;;15.18;36.59
44079;BME280;29744;49.078;12.878;2022-12-10T00:43:17;95055.69;;;15.16;36.96
44079;BME280;29744;49.078;12.878;2022-12-10T00:48:17;95069.53;;;15.14;36.55
44079;BME280;29744;49.078;12.878;2022-12-10T00:53:17;95082.97;;;15.10;36.57
44079;BME280;29744;49.078;12.878;2022-12-10T00:58:18;95094.91;;;15.09;37.20
44079;BME280;29744;49.078;12.878;2022-12-10T01:03:18;95089.09;;;15.07;37.16
44079;BME280;29744;49.078;12.878;2022-12-10T01:08:18;95093.28;;;15.05;36.94
44079;BME280;29744;49.078;12.878;2022-12-10T01:13:19;95103.31;;;15.04;36.87
44079;BME280;29744;49.078;12.878;2022-12-10T01:18:19;95104.00;;;15.01;37.38
44079;BME280;29744;49.078;12.878;2022-12-10T01:23:19;95112.47;;;15.00;37.03
44079;BME280;29744;49.078;12.878;2022-12-10T01:28:19;95118.22;;;14.98;37.21
44079;BME280;29744;49.078;12.878;2022-12-10T01:33:20;95115.44;;;14.95;37.11
44079;BME280;29744;49.078;12.878;2022-12-10T01:38:20;95141.66;;;14.94;37.19
44079;BME280;29744;49.078;12.878;2022-12-10T01:43:20;95132.38;;;14.92;37.45
44079;BME280;29744;49.078;12.878;2022-12-10T01:48:21;95133.84;;;14.89;37.63
44079;BME280;29744;49.078;12.878;2022-12-10T01:53:21;95126.13;;;14.88;37.49
44079;BME280;29744;49.078;12.878;2022-12-10T01:58:21;95136.84;;;14.84;37.18
44079;BME280;29744;49.078;12.878;2022-12-10T02:03:47;95129.88;;;14.83;37.57
44079;BME280;29744;49.078;12.878;2022-12-10T02:14:34;95135.22;;;14.79;37.59
44079;BME280;29744;49.078;12.878;2022-12-10T02:19:52;95125.91;;;14.77;37.54
44079;BME280;29744;49.078;12.878;2022-12-10T02:24:57;95111.63;;;14.76;37.36
44079;BME280;29744;49.078;12.878;2022-12-10T02:29:59;95104.69;;;14.75;37.38
44079;BME280;29744;49.078;12.878;2022-12-10T02:35:04;95111.22;;;14.74;37.71
44079;BME280;29744;49.078;12.878;2022-12-10T02:40:15;95101.91;;;14.72;37.84
44079;BME280;29744;49.078;12.878;2022-12-10T02:45:19;95115.75;;;14.70;37.29
44079;BME280;29744;49.078;12.878;2022-12-10T02:50:21;95119.59;;;14.69;37.32
44079;BME280;29744;49.078;12.878;2022-12-10T02:55:21;95115.34;;;14.68;37.60
44079;BME280;29744;49.078;12.878;2022-12-10T03:00:23;95097.59;;;14.67;37.52
44079;BME280;29744;49.078;12.878;2022-12-10T03:05:33;95088.28;;;14.65;37.91
44079;BME280;29744;49.078;12.878;2022-12-10T03:20:53;95100.16;;;14.60;37.62
44079;BME280;29744;49.078;12.878;2022-12-10T03:25:56;95114.00;;;14.59;37.48
44079;BME280;29744;49.078;12.878;2022-12-10T03:30:57;95107.38;;;14.56;37.63
44079;BME280;29744;49.078;12.878;2022-12-10T03:35:58;95112.78;;;14.56;37.95
44079;BME280;29744;49.078;12.878;2022-12-10T03:40:58;95114.28;;;14.54;37.83
44079;BME280;29744;49.078;12.878;2022-12-10T03:45:59;95118.09;;;14.53;37.74
44079;BME280;29744;49.078;12.878;2022-12-10T03:50:59;95113.84;;;14.52;37.75
44079;BME280;29744;49.078;12.878;2022-12-10T03:56:00;95114.19;;;14.50;37.90
44079;BME280;29744;49.078;12.878;2022-12-10T04:01:00;95120.72;;;14.49;37.75
44079;BME280;29744;49.078;12.878;2022-12-10T04:06:05;95128.03;;;14.48;37.99
44079;BME280;29744;49.078;12.878;2022-12-10T04:11:08;95125.34;;;14.48;37.77
44079;BME280;29744;49.078;12.878;2022-12-10T04:16:09;95120.31;;;14.47;37.67
44079;BME280;29744;49.078;12.878;2022-12-10T04:21:29;95117.19;;;14.45;37.92
44079;BME280;29744;49.078;12.878;2022-12-10T04:26:49;95113.28;;;14.42;37.93
44079;BME280;29744;49.078;12.878;2022-12-10T04:31:52;95106.69;;;14.40;37.86
44079;BME280;29744;49.078;12.878;2022-12-10T04:36:53;95107.47;;;14.40;38.07
44079;BME280;29744;49.078;12.878;2022-12-10T04:41:53;95111.28;;;14.39;37.86
44079;BME280;29744;49.078;12.878;2022-12-10T04:46:56;95104.41;;;14.42;37.79
44079;BME280;29744;49.078;12.878;2022-12-10T04:51:57;95110.22;;;14.44;38.12
44079;BME280;29744;49.078;12.878;2022-12-10T04:56:57;95122.66;;;14.48;37.73
44079;BME280;29744;49.078;12.878;2022-12-10T05:01:58;95117.75;;;14.54;37.93
44079;BME280;29744;49.078;12.878;2022-12-10T05:06:58;95112.50;;;14.61;37.49
44079;BME280;29744;49.078;12.878;2022-12-10T05:11:59;95117.31;;;14.71;37.57
44079;BME280;29744;49.078;12.878;2022-12-10T05:16:59;95116.75;;;14.81;37.53
44079;BME280;29744;49.078;12.878;2022-12-10T05:21:59;95113.88;;;14.94;37.80
44079;BME280;29744;49.078;12.878;2022-12-10T05:27:18;95116.44;;;15.06;37.85
44079;BME280;29744;49.078;12.878;2022-12-10T05:32:18;95105.91;;;15.20;37.65
44079;BME280;29744;49.078;12.878;2022-12-10T05:37:19;95111.50;;;15.31;37.54
44079;BME280;29744;49.078;12.878;2022-12-10T05:42:19;95124.81;;;15.43;37.25
44079;BME280;29744;49.078;12.878;2022-12-10T05:47:19;95113.81;;;15.55;37.63
44079;BME280;29744;49.078;12.878;2022-12-10T05:52:19;95122.50;;;15.68;37.58
44079;BME280;29744;49.078;12.878;2022-12-10T05:57:20;95123.91;;;15.81;37.03
44079;BME280;29744;49.078;12.878;2022-12-10T06:02:20;95143.00;;;15.92;37.07
44079;BME280;29744;49.078;12.878;2022-12-10T06:07:20;95135.03;;;16.02;37.09
44079;BME280;29744;49.078;12.878;2022-12-10T06:12:21;95141.38;;;16.14;36.70
44079;BME280;29744;49.078;12.878;2022-12-10T06:17:21;95138.41;;;16.22;36.71
44079;BME280;29744;49.078;12.878;2022-12-10T06:22:21;95135.06;;;16.32;36.79
44079;BME280;29744;49.078;12.878;2022-12-10T06:27:22;95134.03;;;16.40;36.81
44079;BME280;29744;49.078;12.878;2022-12-10T06:32:22;95126.81;;;16.48;36.92
44079;BME280;29744;49.078;12.878;2022-12-10T06:37:22;95125.00;;;16.56;36.64
44079;BME280;29744;49.078;12.878;2022-12-10T06:42:23;95124.28;;;16.62;36.29
44079;BME280;29744;49.078;12.878;2022-12-10T06:47:23;95131.31;;;16.67;36.25
44079;BME280;29744;49.078;12.878;2022-12-10T06:52:23;95134.47;;;16.72;36.82
44079;BME280;29744;49.078;12.878;2022-12-10T06:57:24;95147.28;;;16.76;36.32
44079;BME280;29744;49.078;12.878;2022-12-10T07:02:24;95144.19;;;16.77;36.22
44079;BME280;29744;49.078;12.878;2022-12-10T07:07:24;95136.47;;;16.79;36.15
44079;BME280;29744;49.078;12.878;2022-12-10T07:12:25;95124.88;;;16.79;36.60
44079;BME280;29744;49.078;12.878;2022-12-10T07:17:25;95138.41;;;16.79;36.29
44079;BME280;29744;49.078;12.878;2022-12-10T07:22:25;95134.16;;;16.78;35.99
44079;BME280;29744;49.078;12.878;2022-12-10T07:27:26;95135.28;;;16.77;36.13
44079;BME280;29744;49.078;12.878;2022-12-10T07:32:27;95143.00;;;16.75;35.98
44079;BME280;29744;49.078;12.878;2022-12-10T07:37:28;95145.31;;;16.72;36.28
44079;BME280;29744;49.078;12.878;2022-12-10T07:42:28;95156.50;;;16.71;36.23
44079;BME280;29744;49.078;12.878;2022-12-10T07:47:28;95148.75;;;16.69;36.22
44079;BME280;29744;49.078;12.878;2022-12-10T07:52:29;95156.09;;;16.69;36.50
44079;BME280;29744;49.078;12.878;2022-12-10T07:57:29;95159.94;;;16.68;36.13
44079;BME280;29744;49.078;12.878;2022-12-10T08:02:30;95154.53;;;16.68;36.36
44079;BME280;29744;49.078;12.878;2022-12-10T08:07:30;95147.56;;;16.67;36.14
44079;BME280;29744;49.078;12.878;2022-12-10T08:12:30;95154.53;;;16.68;36.43
44079;BME280;29744;49.078;12.878;2022-12-10T08:17:31;95150.66;;;16.69;36.49
44079;BME280;29744;49.078;12.878;2022-12-10T08:22:32;95150.66;;;16.69;36.26
44079;BME280;29744;49.078;12.878;2022-12-10T08:27:34;95161.50;;;16.69;36.10
44079;BME280;29744;49.078;12.878;2022-12-10T08:32:34;95169.63;;;16.69;35.97
44079;BME280;29744;49.078;12.878;2022-12-10T08:37:34;95168.84;;;16.68;36.37
44079;BME280;29744;49.078;12.878;2022-12-10T08:42:35;95158.38;;;16.67;36.10
44079;BME280;29744;49.078;12.878;2022-12-10T08:47:35;95166.13;;;16.68;36.30
44079;BME280;29744;49.078;12.878;2022-12-10T08:52:35;95176.19;;;16.68;35.94
44079;BME280;29744;49.078;12.878;2022-12-10T08:57:36;95187.38;;;16.66;35.97
44079;BME280;29744;49.078;12.878;2022-12-10T09:02:36;95195.50;;;16.66;36.28
44079;BME280;29744;49.078;12.878;2022-12-10T09:07:36;95196.66;;;16.65;36.53
44079;BME280;29744;49.078;12.878;2022-12-10T09:12:37;95197.00;;;16.64;36.26
44079;BME280;29744;49.078;12.878;2022-12-10T09:17:38;95196.22;;;16.63;36.20
44079;BME280;29744;49.078;12.878;2022-12-10T09:22:38;95191.19;;;16.62;36.27
44079;BME280;29744;49.078;12.878;2022-12-10T09:27:39;95192.69;;;16.59;36.46
44079;BME280;29744;49.078;12.878;2022-12-10T09:32:39;95177.19;;;16.56;36.23
44079;BME280;29744;49.078;12.878;2022-12-10T09:37:39;95167.91;;;16.31;33.19
44079;BME280;29744;49.078;12.878;2022-12-10T09:42:56;95150.94;;;15.58;31.58
44079;BME280;29744;49.078;12.878;2022-12-10T09:48:29;95161.06;;;14.80;31.15
44079;BME280;29744;49.078;12.878;2022-12-10T09:53:30;95150.03;;;14.31;31.75
44079;BME280;29744;49.078;12.878;2022-12-10T09:58:31;95158.75;;;14.25;31.78
44079;BME280;29744;49.078;12.878;2022-12-10T10:03:37;95165.84;;;14.33;32.31
44079;BME280;29744;49.078;12.878;2022-12-10T10:08:41;95156.44;;;14.42;32.38
44079;BME280;29744;49.078;12.878;2022-12-10T10:13:56;95168.59;;;14.52;32.54
44079;BME280;29744;49.078;12.878;2022-12-10T10:19:01;95161.84;;;14.62;32.90
44079;BME280;29744;49.078;12.878;2022-12-10T10:24:03;95168.59;;;14.71;33.19
44079;BME280;29744;49.078;12.878;2022-12-10T10:29:08;95170.66;;;14.78;32.75
44079;BME280;29744;49.078;12.878;2022-12-10T10:34:19;95168.44;;;14.83;33.13
44079;BME280;29744;49.078;12.878;2022-12-10T10:39:29;95165.03;;;14.87;33.06
44079;BME280;29744;49.078;12.878;2022-12-10T10:44:35;95163.19;;;14.91;33.43
44079;BME280;29744;49.078;12.878;2022-12-10T10:49:43;95163.63;;;14.93;33.33
44079;BME280;29744;49.078;12.878;2022-12-10T10:54:45;95178.75;;;14.97;33.47
44079;BME280;29744;49.078;12.878;2022-12-10T10:59:46;95171.44;;;14.98;34.00
44079;BME280;29744;49.078;12.878;2022-12-10T11:04:49;95166.44;;;15.00;33.90
44079;BME280;29744;49.078;12.878;2022-12-10T11:09:52;95161.06;;;15.00;33.96
44079;BME280;29744;49.078;12.878;2022-12-10T11:14:53;95167.22;;;15.00;33.88
44079;BME280;29744;49.078;12.878;2022-12-10T11:20:00;95164.97;;;15.02;34.09
44079;BME280;29744;49.078;12.878;2022-12-10T11:25:01;95166.56;;;15.03;33.81
44079;BME280;29744;49.078;12.878;2022-12-10T11:35:24;95158.78;;;15.02;34.28
44079;BME280;29744;49.078;12.878;2022-12-10T11:40:50;95150.25;;;15.00;34.73
44079;BME280;29744;49.078;12.878;2022-12-10T11:51:35;95133.63;;;14.98;34.29
44079;BME280;29744;49.078;12.878;2022-12-10T11:56:47;95136.69;;;14.96;34.58
44079;BME280;29744;49.078;12.878;2022-12-10T12:07:53;95140.81;;;14.90;34.86
44079;BME280;29744;49.078;12.878;2022-12-10T12:13:10;95153.53;;;14.90;35.05
44079;BME280;29744;49.078;12.878;2022-12-10T12:18:21;95150.06;;;14.89;34.94
44079;BME280;29744;49.078;12.878;2022-12-10T12:23:43;95140.03;;;14.90;35.14
44079;BME280;29744;49.078;12.878;2022-12-10T12:29:13;95143.44;;;14.87;35.27
44079;BME280;29744;49.078;12.878;2022-12-10T12:39:58;95134.22;;;14.88;35.01
44079;BME280;29744;49.078;12.878;2022-12-10T12:45:19;95144.22;;;14.87;34.94
44079;BME280;29744;49.078;12.878;2022-12-10T12:50:27;95143.44;;;14.87;34.96
44079;BME280;29744;49.078;12.878;2022-12-10T12:55:48;95142.25;;;14.84;34.99
44079;BME280;29744;49.078;12.878;2022-12-10T13:00:55;95145.28;;;14.82;35.04
44079;BME280;29744;49.078;12.878;2022-12-10T13:06:15;95154.09;;;14.79;35.71
44079;BME280;29744;49.078;12.878;2022-12-10T13:27:26;95175.47;;;14.69;35.33
44079;BME280;29744;49.078;12.878;2022-12-10T13:37:31;95176.63;;;14.68;35.63
44079;BME280;29744;49.078;12.878;2022-12-10T13:42:34;95175.84;;;14.67;35.93
44079;BME280;29744;49.078;12.878;2022-12-10T14:03:46;95204.16;;;14.58;36.23
44079;BME280;29744;49.078;12.878;2022-12-10T14:09:18;95201.81;;;14.56;36.22
44079;BME280;29744;49.078;12.878;2022-12-10T14:19:28;95214.09;;;14.54;36.17
44079;BME280;29744;49.078;12.878;2022-12-10T14:29:31;95222.53;;;14.52;36.38
44079;BME280;29744;49.078;12.878;2022-12-10T14:34:31;95220.97;;;14.51;35.99
44079;BME280;29744;49.078;12.878;2022-12-10T14:39:32;95217.50;;;14.50;36.33
44079;BME280;29744;49.078;12.878;2022-12-10T14:44:37;95216.28;;;14.48;36.52
44079;BME280;29744;49.078;12.878;2022-12-10T14:49:45;95212.38;;;14.45;36.20
44079;BME280;29744;49.078;12.878;2022-12-10T14:54:47;95217.34;;;14.43;36.40
44079;BME280;29744;49.078;12.878;2022-12-10T15:00:14;95227.69;;;14.41;36.16
44079;BME280;29744;49.078;12.878;2022-12-10T15:05:24;95233.78;;;14.38;36.77
44079;BME280;29744;49.078;12.878;2022-12-10T15:10:28;95235.72;;;14.38;36.63
44079;BME280;29744;49.078;12.878;2022-12-10T15:15:39;95240.66;;;14.36;36.86
44079;BME280;29744;49.078;12.878;2022-12-10T15:20:48;95244.50;;;14.35;36.39
44079;BME280;29744;49.078;12.878;2022-12-10T15:36:51;95257.13;;;14.31;36.77
44079;BME280;29744;49.078;12.878;2022-12-10T15:41:54;95257.13;;;14.31;36.61
44079;BME280;29744;49.078;12.878;2022-12-10T15:47:08;95272.88;;;14.29;36.82
44079;BME280;29744;49.078;12.878;2022-12-10T15:52:17;95254.34;;;14.27;36.51
44079;BME280;29744;49.078;12.878;2022-12-10T15:57:20;95268.59;;;14.28;36.65
44079;BME280;29744;49.078;12.878;2022-12-10T16:02:39;95262.78;;;14.26;37.00
44079;BME280;29744;49.078;12.878;2022-12-10T16:07:40;95266.63;;;14.25;37.12
44079;BME280;29744;49.078;12.878;2022-12-10T16:12:41;95263.13;;;14.24;37.06
44079;BME280;29744;49.078;12.878;2022-12-10T16:17:42;95277.41;;;14.25;36.65
44079;BME280;29744;49.078;12.878;2022-12-10T16:22:42;95282.34;;;14.23;36.87
44079;BME280;29744;49.078;12.878;2022-12-10T16:27:43;95284.28;;;14.22;37.20
44079;BME280;29744;49.078;12.878;2022-12-10T16:32:44;95293.47;;;14.21;36.95
44079;BME280;29744;49.078;12.878;2022-12-10T16:37:46;95280.31;;;14.19;37.13
44079;BME280;29744;49.078;12.878;2022-12-10T16:42:49;95303.47;;;14.21;36.85
44079;BME280;29744;49.078;12.878;2022-12-10T16:47:51;95296.50;;;14.19;37.22
44079;BME280;29744;49.078;12.878;2022-12-10T16:52:52;95303.47;;;14.21;37.01
44079;BME280;29744;49.078;12.878;2022-12-10T16:57:54;95307.72;;;14.22;36.86
44079;BME280;29744;49.078;12.878;2022-12-10T17:02:54;95316.72;;;14.26;36.77
44079;BME280;29744;49.078;12.878;2022-12-10T17:07:54;95322.28;;;14.33;36.86
44079;BME280;29744;49.078;12.878;2022-12-10T17:12:55;95324.44;;;14.43;36.83
44079;BME280;29744;49.078;12.878;2022-12-10T17:17:55;95324.28;;;14.52;36.77
44079;BME280;29744;49.078;12.878;2022-12-10T17:22:55;95341.13;;;14.64;36.73
44079;BME280;29744;49.078;12.878;2022-12-10T17:27:56;95335.97;;;14.75;36.86
44079;BME280;29744;49.078;12.878;2022-12-10T17:32:57;95339.34;;;14.88;36.46
44079;BME280;29744;49.078;12.878;2022-12-10T17:37:57;95343.97;;;15.03;36.77
44079;BME280;29744;49.078;12.878;2022-12-10T17:42:58;95342.69;;;15.16;36.75
44079;BME280;29744;49.078;12.878;2022-12-10T17:47:58;95341.06;;;15.31;36.42
44079;BME280;29744;49.078;12.878;2022-12-10T17:53:00;95343.28;;;15.44;36.46
44079;BME280;29744;49.078;12.878;2022-12-10T17:58:00;95333.53;;;15.59;36.23
44079;BME280;29744;49.078;12.878;2022-12-10T18:03:00;95329.19;;;15.74;36.59
44079;BME280;29744;49.078;12.878;2022-12-10T18:08:01;95340.28;;;15.88;36.17
44079;BME280;29744;49.078;12.878;2022-12-10T18:13:02;95345.97;;;16.02;35.93
44079;BME280;29744;49.078;12.878;2022-12-10T18:18:02;95349.28;;;16.15;36.02
44079;BME280;29744;49.078;12.878;2022-12-10T18:23:05;95353.38;;;16.28;35.88
44079;BME280;29744;49.078;12.878;2022-12-10T18:33:27;95356.09;;;16.51;35.78
44079;BME280;29744;49.078;12.878;2022-12-10T18:38:27;95356.66;;;16.60;35.47
44079;BME280;29744;49.078;12.878;2022-12-10T18:43:28;95364.16;;;16.70;35.66
44079;BME280;29744;49.078;12.878;2022-12-10T18:48:29;95365.84;;;16.79;35.87
44079;BME280;29744;49.078;12.878;2022-12-10T18:53:29;95377.56;;;16.86;35.30
44079;BME280;29744;49.078;12.878;2022-12-10T18:58:30;95383.44;;;16.92;35.57
44079;BME280;29744;49.078;12.878;2022-12-10T19:03:31;95380.44;;;16.97;35.51
44079;BME280;29744;49.078;12.878;2022-12-10T19:08:31;95380.91;;;17.02;35.45
44079;BME280;29744;49.078;12.878;2022-12-10T19:13:32;95385.59;;;17.05;35.48
44079;BME280;29744;49.078;12.878;2022-12-10T19:18:33;95388.72;;;17.08;35.04
44079;BME280;29744;49.078;12.878;2022-12-10T19:23:34;95389.13;;;17.10;35.28
44079;BME280;29744;49.078;12.878;2022-12-10T19:28:34;95387.19;;;17.10;35.04
44079;BME280;29744;49.078;12.878;2022-12-10T19:33:34;95387.19;;;17.10;35.33
44079;BME280;29744;49.078;12.878;2022-12-10T19:38:35;95389.91;;;17.10;35.22
44079;BME280;29744;49.078;12.878;2022-12-10T19:43:35;95398.03;;;17.10;35.26
44079;BME280;29744;49.078;12.878;2022-12-10T19:48:36;95403.03;;;17.08;35.07
44079;BME280;29744;49.078;12.878;2022-12-10T19:53:38;95394.91;;;17.08;35.59
44079;BME280;29744;49.078;12.878;2022-12-10T19:58:38;95384.81;;;17.05;35.25
44079;BME280;29744;49.078;12.878;2022-12-10T20:03:39;95388.25;;;17.02;35.16
44079;BME280;29744;49.078;12.878;2022-12-10T20:08:39;95379.69;;;17.00;34.98
44079;BME280;29744;49.078;12.878;2022-12-10T20:13:40;95373.09;;;16.97;35.35
44079;BME280;29744;49.078;12.878;2022-12-10T20:18:43;95373.81;;;16.94;35.46
44079;BME280;29744;49.078;12.878;2022-12-10T20:23:44;95377.66;;;16.93;34.97
44079;BME280;29744;49.078;12.878;2022-12-10T20:28:45;95371.84;;;16.91;35.34
44079;BME280;29744;49.078;12.878;2022-12-10T20:33:46;95376.47;;;16.91;35.04
44079;BME280;29744;49.078;12.878;2022-12-10T20:38:47;95369.06;;;16.88;35.62
44079;BME280;29744;49.078;12.878;2022-12-10T20:43:47;95379.91;;;16.88;35.36
44079;BME280;29744;49.078;12.878;2022-12-10T20:48:48;95376.78;;;16.86;35.49
44079;BME280;29744;49.078;12.878;2022-12-10T20:53:49;95381.41;;;16.85;35.15
44079;BME280;29744;49.078;12.878;2022-12-10T20:58:50;95382.56;;;16.84;35.47
44079;BME280;29744;49.078;12.878;2022-12-10T21:03:51;95389.91;;;16.84;35.39
44079;BME280;29744;49.078;12.878;2022-12-10T21:08:52;95388.34;;;16.83;35.28
44079;BME280;29744;49.078;12.878;2022-12-10T21:13:52;95394.91;;;16.82;35.38
44079;BME280;29744;49.078;12.878;2022-12-10T21:18:53;95397.19;;;16.80;35.60
44079;BME280;29744;49.078;12.878;2022-12-10T21:23:54;95391.34;;;16.78;35.69
44079;BME280;29744;49.078;12.878;2022-12-10T21:28:55;95393.63;;;16.76;35.45
44079;BME280;29744;49.078;12.878;2022-12-10T21:33:55;95380.81;;;16.72;35.59
44079;BME280;29744;49.078;12.878;2022-12-10T21:38:56;95384.97;;;16.66;35.16
44079;BME280;29744;49.078;12.878;2022-12-10T21:43:57;95395.03;;;16.66;35.67
44079;BME280;29744;49.078;12.878;2022-12-10T21:48:57;95402.72;;;16.64;35.76
44079;BME280;29744;49.078;12.878;2022-12-10T21:53:58;95399.19;;;16.60;35.57
44079;BME280;29744;49.078;12.878;2022-12-10T21:58:59;95408.38;;;16.55;35.44
44079;BME280;29744;49.078;12.878;2022-12-10T22:04:00;95414.50;;;16.52;35.67
44079;BME280;29744;49.078;12.878;2022-12-10T22:09:01;95416.34;;;16.48;35.72
44079;BME280;29744;49.078;12.878;2022-12-10T22:14:01;95406.63;;;16.44;35.69
44079;BME280;29744;49.078;12.878;2022-12-10T22:19:02;95409.22;;;16.40;35.72
44079;BME280;29744;49.078;12.878;2022-12-10T22:24:02;95408.38;;;16.36;35.55
44079;BME280;29744;49.078;12.878;2022-12-10T22:29:02;95404.84;;;16.32;35.71
44079;BME280;29744;49.078;12.878;2022-12-10T22:34:03;95403.22;;;16.27;35.84
44079;BME280;29744;49.078;12.878;2022-12-10T22:39:03;95404.28;;;16.23;35.72
44079;BME280;29744;49.078;12.878;2022-12-10T22:44:03;95399.16;;;16.18;35.67
44079;BME280;29744;49.078;12.878;2022-12-10T22:49:04;95404.50;;;16.14;35.94
44079;BME280;29744;49.078;12.878;2022-12-10T22:54:04;95407.94;;;16.11;35.71
44079;BME280;29744;49.078;12.878;2022-12-10T22:59:04;95398.97;;;16.07;35.92
44079;BME280;29744;49.078;12.878;2022-12-10T23:04:05;95401.59;;;16.03;35.89
44079;BME280;29744;49.078;12.878;2022-12-10T23:09:05;95411.22;;;16.01;35.84
44079;BME280;29744;49.078;12.878;2022-12-10T23:14:05;95403.03;;;15.97;36.17
44079;BME280;29744;49.078;12.878;2022-12-10T23:19:05;95391.03;;;15.95;36.14
44079;BME280;29744;49.078;12.878;2022-12-10T23:24:07;95400.19;;;15.90;35.81
44079;BME280;29744;49.078;12.878;2022-12-10T23:29:07;95405.13;;;15.85;36.09
44079;BME280;29744;49.078;12.878;2022-12-10T23:34:08;95403.91;;;15.82;36.38
44079;BME280;29744;49.078;12.878;2022-12-10T23:39:08;95405.41;;;15.80;36.37
44079;BME280;29744;49.078;12.878;2022-12-10T23:44:09;95408.00;;;15.76;36.38
44079;BME280;29744;49.078;12.878;2022-12-10T23:49:09;95401.75;;;15.72;36.14
44079;BME280;29744;49.078;12.878;2022-12-10T23:54:09;95406.28;;;15.68;36.36
44079;BME280;29744;49.078;12.878;2022-12-10T23:59:09;95395.06;;;15.66;36.47
